Ucluelet, Canada
Current Conditions -  °F | °C
As of 10:00 AM on Saturday 25 Oct 2014 (Local Time) from CYAZ Reporting Station
Moderate Rain Moderate Rain  
Wind Chill: 50°   Ceiling: 700
Heat Index: 50°   Visibility: 2mi
Dew Point: 48°   Wind: 9mph
Humidity: 94%   Direction: 100°E
Pressure: 29.33"   Gusts: 17mph
Location:  48.94°N, 125.54°W
Report Text: CYAZ 251700Z 10008G15KT 2SM RA BR SCT004 BKN007 OVC018 10/09 A2933 RMK SF3SF4SC1 /R14/ SLP934 DENSITY ALT 100FT
Loading
Personal Weather Stations






























Interactive Weather Map New forecast layout! Learn more

10-Day Weather Forecast

Advertisements
Track Severe Weather on mobile